Time;durP1;ratioP1;P1;durP2;ratioP2;P2;SDS_P1;SDS_P2;PMS_P1;PMS_P2;Temp;Humidity;BMP_temperature;BMP_pressure;BME280_temperature;BME280_humidity;BME280_pressure;Samples;Min_cycle;Max_cycle;Signal;HPM_P1;HPM_P2
2023/07/22 00:00:27;;;;;;;7.07;4.53;;;;;;;;;;5108344;27;42641;-61
2023/07/22 00:02:55;;;;;;;6.13;4.65;;;;;;;;;;5107609;27;42102;-62
2023/07/22 00:05:23;;;;;;;9.27;4.55;;;;;;;;;;5108951;27;40345;-62
2023/07/22 00:07:51;;;;;;;4.85;4.28;;;;;;;;;;5109069;27;41651;-62
2023/07/22 00:10:19;;;;;;;5.45;4.25;;;;;;;;;;5107376;27;41447;-62
2023/07/22 00:12:48;;;;;;;5.43;4.10;;;;;;;;;;5107519;27;41484;-62
2023/07/22 00:15:16;;;;;;;5.28;4.03;;;;;;;;;;5108338;27;42685;-62
2023/07/22 00:17:44;;;;;;;6.15;4.00;;;;;;;;;;5107175;27;40471;-62
2023/07/22 00:20:13;;;;;;;4.57;4.13;;;;;;;;;;5108349;27;41036;-62
2023/07/22 00:22:42;;;;;;;5.88;4.00;;;;;;;;;;5107964;27;43056;-62
2023/07/22 00:25:11;;;;;;;4.82;4.20;;;;;;;;;;5106540;27;40501;-62
2023/07/22 00:27:39;;;;;;;5.13;4.00;;;;;;;;;;5108559;27;42328;-62
2023/07/22 00:30:09;;;;;;;5.22;4.35;;;;;;;;;;5106840;27;40747;-62
2023/07/22 00:32:37;;;;;;;4.28;3.85;;;;;;;;;;5107139;27;40172;-62
2023/07/22 00:35:06;;;;;;;6.15;4.50;;;;;;;;;;5108195;27;43018;-62
2023/07/22 00:37:34;;;;;;;4.90;3.85;;;;;;;;;;5106785;27;40388;-62
2023/07/22 00:40:03;;;;;;;5.15;4.30;;;;;;;;;;5108196;27;42757;-62
2023/07/22 00:42:31;;;;;;;6.28;4.10;;;;;;;;;;5107936;28;41774;-62
2023/07/22 00:44:59;;;;;;;5.55;4.15;;;;;;;;;;5107505;28;40024;-62
2023/07/22 00:47:28;;;;;;;6.68;4.10;;;;;;;;;;5108247;27;42091;-62
2023/07/22 00:49:57;;;;;;;5.78;4.60;;;;;;;;;;5106228;27;41212;-62
2023/07/22 00:52:25;;;;;;;6.30;4.65;;;;;;;;;;5106148;27;41709;-62
2023/07/22 00:54:53;;;;;;;4.60;4.10;;;;;;;;;;5109021;28;41832;-62
2023/07/22 00:57:21;;;;;;;4.93;4.28;;;;;;;;;;5106817;28;39724;-62
2023/07/22 00:59:49;;;;;;;6.85;4.07;;;;;;;;;;5107514;28;42542;-61
2023/07/22 01:02:17;;;;;;;5.05;4.03;;;;;;;;;;5107965;28;43807;-62
2023/07/22 01:04:46;;;;;;;5.35;4.32;;;;;;;;;;5095679;28;40469;-62
2023/07/22 01:07:14;;;;;;;6.57;3.85;;;;;;;;;;5103934;28;40416;-62
2023/07/22 01:09:43;;;;;;;6.70;4.10;;;;;;;;;;5106411;28;41261;-62
2023/07/22 01:12:12;;;;;;;4.57;3.90;;;;;;;;;;5108403;27;40330;-62
2023/07/22 01:14:40;;;;;;;5.15;4.30;;;;;;;;;;5103144;27;40831;-62
2023/07/22 01:17:09;;;;;;;5.25;4.30;;;;;;;;;;5108608;28;42042;-61
2023/07/22 01:19:38;;;;;;;7.82;4.22;;;;;;;;;;5124583;27;42494;-62
2023/07/22 01:22:08;;;;;;;4.95;4.28;;;;;;;;;;5106216;28;42113;-62
2023/07/22 01:24:37;;;;;;;6.00;4.53;;;;;;;;;;5108110;28;39722;-62
2023/07/22 01:27:08;;;;;;;6.22;4.68;;;;;;;;;;5107260;27;40548;-62
2023/07/22 01:29:36;;;;;;;5.80;4.88;;;;;;;;;;5106732;28;43160;-62
2023/07/22 01:32:05;;;;;;;6.97;4.28;;;;;;;;;;5106415;28;39019;-62
2023/07/22 01:34:33;;;;;;;4.75;3.90;;;;;;;;;;5107268;28;41805;-62
2023/07/22 01:37:01;;;;;;;6.18;4.65;;;;;;;;;;5108791;28;41047;-61
2023/07/22 01:39:29;;;;;;;6.63;4.50;;;;;;;;;;5108108;28;41353;-62
2023/07/22 01:41:58;;;;;;;4.65;4.15;;;;;;;;;;5107822;28;42413;-61
2023/07/22 01:44:26;;;;;;;4.55;4.10;;;;;;;;;;5103226;28;39199;-62
2023/07/22 01:46:54;;;;;;;5.65;4.75;;;;;;;;;;5100468;28;42472;-62
2023/07/22 01:49:24;;;;;;;6.22;5.28;;;;;;;;;;5107537;27;42162;-62
2023/07/22 01:51:52;;;;;;;5.40;4.53;;;;;;;;;;5123804;27;39911;-62
2023/07/22 01:54:20;;;;;;;6.63;4.70;;;;;;;;;;5106339;28;42444;-63
2023/07/22 01:56:48;;;;;;;7.00;5.07;;;;;;;;;;5105769;27;41910;-61
2023/07/22 01:59:18;;;;;;;5.72;4.40;;;;;;;;;;5106455;28;40759;-61
2023/07/22 02:01:47;;;;;;;4.65;4.20;;;;;;;;;;5106731;28;40577;-61
2023/07/22 02:04:15;;;;;;;5.10;4.47;;;;;;;;;;5106789;28;40569;-61
2023/07/22 02:06:44;;;;;;;5.20;4.70;;;;;;;;;;5107286;27;42754;-61
2023/07/22 02:09:13;;;;;;;5.43;4.68;;;;;;;;;;5104294;28;42255;-62
2023/07/22 02:11:41;;;;;;;5.15;4.47;;;;;;;;;;5108095;28;41133;-61
2023/07/22 02:14:09;;;;;;;7.03;4.75;;;;;;;;;;5107258;28;42660;-61
2023/07/22 02:16:39;;;;;;;6.25;4.88;;;;;;;;;;5106697;27;42608;-61
2023/07/22 02:19:07;;;;;;;6.85;4.35;;;;;;;;;;5106476;28;40338;-61
2023/07/22 02:21:41;;;;;;;5.65;4.47;;;;;;;;;;5122045;27;42318;-61
2023/07/22 02:24:10;;;;;;;7.50;4.45;;;;;;;;;;5102334;27;39094;-61
2023/07/22 02:26:38;;;;;;;4.72;4.03;;;;;;;;;;5107327;27;41166;-63
2023/07/22 02:29:07;;;;;;;5.95;4.57;;;;;;;;;;5105011;28;43817;-63
2023/07/22 02:31:35;;;;;;;5.72;4.88;;;;;;;;;;5106149;28;41691;-63
2023/07/22 02:34:05;;;;;;;6.15;4.70;;;;;;;;;;5106779;27;42488;-64
2023/07/22 02:36:33;;;;;;;8.63;4.88;;;;;;;;;;5106032;28;43387;-63
2023/07/22 02:39:02;;;;;;;6.03;4.35;;;;;;;;;;5105386;28;38968;-63
2023/07/22 02:41:30;;;;;;;6.05;4.72;;;;;;;;;;5106804;28;42631;-63
2023/07/22 02:43:58;;;;;;;6.75;4.57;;;;;;;;;;5105473;28;39002;-63
2023/07/22 02:46:26;;;;;;;5.65;4.35;;;;;;;;;;5106802;28;42630;-63
2023/07/22 02:48:55;;;;;;;5.55;4.32;;;;;;;;;;5107568;28;42811;-63
2023/07/22 02:51:25;;;;;;;6.00;4.68;;;;;;;;;;5106983;28;40441;-63
2023/07/22 02:53:53;;;;;;;6.35;5.30;;;;;;;;;;5103826;28;41614;-63
2023/07/22 02:56:21;;;;;;;6.53;4.82;;;;;;;;;;5106267;28;43386;-63
2023/07/22 02:58:49;;;;;;;5.43;4.53;;;;;;;;;;5106253;27;40082;-63
2023/07/22 03:01:18;;;;;;;7.88;4.88;;;;;;;;;;5107511;28;42107;-63
2023/07/22 03:03:47;;;;;;;6.00;4.43;;;;;;;;;;5107421;28;40533;-63
2023/07/22 03:06:15;;;;;;;5.85;5.03;;;;;;;;;;5106776;28;41535;-63
2023/07/22 03:08:44;;;;;;;5.82;4.50;;;;;;;;;;5105149;28;40583;-63
2023/07/22 03:11:12;;;;;;;5.15;4.63;;;;;;;;;;5106969;28;41472;-64
2023/07/22 03:13:40;;;;;;;6.13;5.00;;;;;;;;;;5120937;27;41033;-63
2023/07/22 03:16:09;;;;;;;6.10;4.95;;;;;;;;;;5105474;28;41829;-64
2023/07/22 03:18:39;;;;;;;6.03;4.43;;;;;;;;;;5107348;27;40735;-64
2023/07/22 03:21:08;;;;;;;5.65;4.55;;;;;;;;;;5109077;27;42304;-63
2023/07/22 03:23:36;;;;;;;7.35;4.70;;;;;;;;;;5110168;28;41971;-64
2023/07/22 03:26:06;;;;;;;6.05;4.75;;;;;;;;;;5110476;28;41743;-63
2023/07/22 03:28:34;;;;;;;6.18;5.40;;;;;;;;;;5108554;28;41859;-62
2023/07/22 03:31:02;;;;;;;6.30;5.20;;;;;;;;;;5109195;28;40690;-62
2023/07/22 03:33:30;;;;;;;6.25;4.78;;;;;;;;;;5110419;28;41316;-62
2023/07/22 03:35:58;;;;;;;7.65;4.85;;;;;;;;;;5109697;27;42185;-63
2023/07/22 03:38:26;;;;;;;8.73;5.60;;;;;;;;;;5110705;28;40029;-63
2023/07/22 03:40:54;;;;;;;6.90;5.43;;;;;;;;;;5107479;28;40428;-63
2023/07/22 03:43:23;;;;;;;6.40;4.85;;;;;;;;;;5109757;28;43076;-63
2023/07/22 03:45:51;;;;;;;7.00;5.65;;;;;;;;;;5109644;28;41087;-63
2023/07/22 03:48:19;;;;;;;9.60;5.45;;;;;;;;;;5108176;28;41502;-63
2023/07/22 03:50:47;;;;;;;7.43;5.07;;;;;;;;;;5108757;27;38813;-63
2023/07/22 03:53:17;;;;;;;7.82;5.40;;;;;;;;;;5110057;28;41874;-63
2023/07/22 03:55:45;;;;;;;6.22;5.30;;;;;;;;;;5108465;27;42637;-63
2023/07/22 03:58:13;;;;;;;7.07;5.35;;;;;;;;;;5109511;28;40434;-63
2023/07/22 04:00:45;;;;;;;7.63;5.82;;;;;;;;;;5090056;28;42379;-63
2023/07/22 04:03:13;;;;;;;7.30;5.97;;;;;;;;;;5104824;28;42001;-63
2023/07/22 04:05:41;;;;;;;6.90;5.45;;;;;;;;;;5106678;27;40045;-63
2023/07/22 04:08:09;;;;;;;7.55;5.53;;;;;;;;;;5108832;28;41236;-63
2023/07/22 04:10:37;;;;;;;7.50;5.90;;;;;;;;;;5106802;27;41267;-63
2023/07/22 04:13:05;;;;;;;8.85;5.82;;;;;;;;;;5109186;28;41755;-63
2023/07/22 04:15:33;;;;;;;6.15;5.13;;;;;;;;;;5109882;28;42104;-63
2023/07/22 04:18:03;;;;;;;7.57;5.35;;;;;;;;;;5109013;27;39850;-63
2023/07/22 04:20:31;;;;;;;6.45;5.25;;;;;;;;;;5109486;28;41572;-63
2023/07/22 04:22:58;;;;;;;7.43;5.93;;;;;;;;;;5108552;28;42129;-63
2023/07/22 04:25:29;;;;;;;7.60;6.03;;;;;;;;;;5107830;28;39545;-62
2023/07/22 04:27:57;;;;;;;6.68;5.45;;;;;;;;;;5106137;27;41888;-63
2023/07/22 04:30:26;;;;;;;6.65;5.68;;;;;;;;;;5104922;27;42448;-63
2023/07/22 04:32:54;;;;;;;8.35;6.03;;;;;;;;;;5108069;27;41494;-63
2023/07/22 04:35:23;;;;;;;8.68;6.22;;;;;;;;;;5107258;28;43022;-63
2023/07/22 04:37:51;;;;;;;8.82;5.85;;;;;;;;;;5102666;28;40270;-63
2023/07/22 04:40:19;;;;;;;7.43;6.15;;;;;;;;;;5109378;27;42062;-63
2023/07/22 04:42:47;;;;;;;9.48;6.65;;;;;;;;;;5100916;27;42821;-61
2023/07/22 04:45:15;;;;;;;8.65;6.15;;;;;;;;;;5095474;28;41077;-61
2023/07/22 04:47:46;;;;;;;8.48;6.35;;;;;;;;;;5101153;27;44099;-61
2023/07/22 04:50:14;;;;;;;7.32;6.57;;;;;;;;;;5100692;27;41684;-62
2023/07/22 04:52:44;;;;;;;8.20;6.40;;;;;;;;;;5101710;27;41349;-61
2023/07/22 04:55:12;;;;;;;8.27;6.78;;;;;;;;;;5105124;27;42051;-62
2023/07/22 04:57:40;;;;;;;8.57;6.85;;;;;;;;;;5108620;27;40020;-62
2023/07/22 05:00:13;;;;;;;10.95;6.85;;;;;;;;;;5107467;27;41999;-62
2023/07/22 05:02:41;;;;;;;9.10;6.72;;;;;;;;;;5103784;27;43273;-62
2023/07/22 05:05:09;;;;;;;10.85;7.03;;;;;;;;;;5102208;27;41381;-62
2023/07/22 05:07:37;;;;;;;8.13;6.88;;;;;;;;;;5108897;28;42552;-62
2023/07/22 05:10:11;;;;;;;8.90;6.75;;;;;;;;;;5097236;27;41902;-62
2023/07/22 05:12:39;;;;;;;10.95;7.38;;;;;;;;;;5087898;28;40440;-62
2023/07/22 05:15:08;;;;;;;10.18;7.57;;;;;;;;;;5094396;28;42082;-62
2023/07/22 05:17:36;;;;;;;11.38;7.20;;;;;;;;;;5108315;27;40704;-62
2023/07/22 05:20:06;;;;;;;10.32;7.75;;;;;;;;;;5107976;27;41638;-62
2023/07/22 05:22:34;;;;;;;9.25;7.07;;;;;;;;;;5107991;27;44110;-62
2023/07/22 05:25:04;;;;;;;9.90;7.80;;;;;;;;;;5108500;27;41891;-62
2023/07/22 05:27:33;;;;;;;12.57;8.35;;;;;;;;;;5107993;27;41660;-62
2023/07/22 05:30:01;;;;;;;12.70;8.40;;;;;;;;;;5108151;27;43116;-61
2023/07/22 05:32:29;;;;;;;9.07;7.35;;;;;;;;;;5108383;27;39790;-62
2023/07/22 05:35:01;;;;;;;13.13;10.23;;;;;;;;;;5108793;27;41730;-65
2023/07/22 05:37:29;;;;;;;11.75;8.88;;;;;;;;;;5102260;27;40333;-65
2023/07/22 05:39:57;;;;;;;22.48;15.85;;;;;;;;;;5108249;27;43102;-65
2023/07/22 05:42:25;;;;;;;26.48;18.70;;;;;;;;;;5102809;27;42590;-65
2023/07/22 05:44:55;;;;;;;21.65;16.70;;;;;;;;;;5101140;27;40304;-65
2023/07/22 05:47:24;;;;;;;26.65;19.15;;;;;;;;;;5088909;27;41724;-64
2023/07/22 05:49:52;;;;;;;28.70;19.40;;;;;;;;;;5106059;27;41659;-63
2023/07/22 05:52:20;;;;;;;28.98;19.42;;;;;;;;;;5106921;28;40795;-65
2023/07/22 05:54:48;;;;;;;25.45;18.40;;;;;;;;;;5106158;27;42533;-62
2023/07/22 05:57:16;;;;;;;29.30;18.85;;;;;;;;;;5106125;27;40483;-62
2023/07/22 05:59:44;;;;;;;26.48;18.42;;;;;;;;;;5107854;27;41320;-62
2023/07/22 06:02:13;;;;;;;28.60;18.63;;;;;;;;;;5106497;27;42468;-62
2023/07/22 06:04:42;;;;;;;29.75;18.80;;;;;;;;;;5107889;27;41440;-62
2023/07/22 06:07:10;;;;;;;28.17;18.83;;;;;;;;;;5106395;27;43254;-65
2023/07/22 06:09:38;;;;;;;26.75;18.33;;;;;;;;;;5107216;28;41712;-63
2023/07/22 06:12:06;;;;;;;24.40;17.08;;;;;;;;;;5106298;28;41228;-61
2023/07/22 06:14:34;;;;;;;26.80;17.77;;;;;;;;;;5107846;28;43194;-65
2023/07/22 06:17:02;;;;;;;28.35;17.75;;;;;;;;;;5105863;27;42009;-64
2023/07/22 06:19:30;;;;;;;26.50;18.52;;;;;;;;;;5108180;28;41880;-62
2023/07/22 06:22:00;;;;;;;29.75;17.27;;;;;;;;;;5107403;28;42200;-63
2023/07/22 06:24:28;;;;;;;29.05;18.55;;;;;;;;;;5107324;27;40618;-63
2023/07/22 06:26:56;;;;;;;27.92;18.48;;;;;;;;;;5107157;28;41781;-63
2023/07/22 06:29:24;;;;;;;25.88;18.13;;;;;;;;;;5106109;28;42937;-67
2023/07/22 06:31:52;;;;;;;25.33;16.90;;;;;;;;;;5104366;28;40436;-65
2023/07/22 06:34:20;;;;;;;26.60;16.80;;;;;;;;;;5105661;28;42696;-62
2023/07/22 06:36:48;;;;;;;25.95;18.42;;;;;;;;;;5106042;27;40718;-63
2023/07/22 06:39:18;;;;;;;26.63;16.88;;;;;;;;;;5106596;28;41868;-63
2023/07/22 06:41:46;;;;;;;28.23;18.27;;;;;;;;;;5107897;27;41717;-63
2023/07/22 06:44:14;;;;;;;25.10;17.02;;;;;;;;;;5106284;28;40535;-62
2023/07/22 06:46:44;;;;;;;30.38;17.38;;;;;;;;;;5106889;28;41905;-64
2023/07/22 06:49:12;;;;;;;35.47;17.48;;;;;;;;;;5107008;28;41886;-68
2023/07/22 06:51:39;;;;;;;25.38;17.23;;;;;;;;;;5085872;28;39997;-64
2023/07/22 06:54:07;;;;;;;27.88;17.35;;;;;;;;;;5097998;28;41725;-66
2023/07/22 06:56:37;;;;;;;26.90;17.42;;;;;;;;;;5095009;28;43281;-66
2023/07/22 06:59:05;;;;;;;28.40;17.15;;;;;;;;;;5105854;27;41542;-65
2023/07/22 07:01:33;;;;;;;21.98;14.40;;;;;;;;;;5098141;28;41669;-64
2023/07/22 07:04:01;;;;;;;24.23;15.48;;;;;;;;;;5104666;28;34537;-65
2023/07/22 07:06:29;;;;;;;18.23;14.13;;;;;;;;;;5103204;28;42293;-65
2023/07/22 07:09:00;;;;;;;23.70;14.55;;;;;;;;;;5104806;28;42620;-65
2023/07/22 07:11:28;;;;;;;20.25;13.68;;;;;;;;;;5104247;28;39970;-64
2023/07/22 07:13:58;;;;;;;21.70;14.10;;;;;;;;;;5103310;28;41851;-65
2023/07/22 07:16:27;;;;;;;20.60;13.73;;;;;;;;;;5105505;28;42546;-64
2023/07/22 07:18:56;;;;;;;31.52;14.13;;;;;;;;;;5105152;27;41332;-64
2023/07/22 07:21:24;;;;;;;23.67;13.68;;;;;;;;;;5106213;28;42173;-64
2023/07/22 07:23:52;;;;;;;18.90;12.38;;;;;;;;;;5106790;28;41823;-64
2023/07/22 07:26:20;;;;;;;19.70;11.77;;;;;;;;;;5105216;28;42451;-64
2023/07/22 07:28:48;;;;;;;18.48;10.55;;;;;;;;;;5106073;28;43263;-64
2023/07/22 07:31:17;;;;;;;35.75;11.32;;;;;;;;;;5106453;28;41013;-63
2023/07/22 07:33:45;;;;;;;25.23;13.27;;;;;;;;;;5105068;27;42257;-64
2023/07/22 07:36:14;;;;;;;16.27;11.75;;;;;;;;;;5106897;28;42126;-64
2023/07/22 07:38:42;;;;;;;18.67;12.05;;;;;;;;;;5106221;28;41651;-64
2023/07/22 07:41:11;;;;;;;16.63;11.50;;;;;;;;;;5105635;28;41566;-65
2023/07/22 07:43:39;;;;;;;22.00;11.85;;;;;;;;;;5105824;28;42750;-64
2023/07/22 07:46:13;;;;;;;15.90;11.45;;;;;;;;;;5097177;28;40109;-64
2023/07/22 07:48:43;;;;;;;16.95;11.40;;;;;;;;;;5094777;28;43087;-65
2023/07/22 07:51:12;;;;;;;19.48;12.70;;;;;;;;;;5093331;27;40593;-65
2023/07/22 07:53:40;;;;;;;15.82;11.02;;;;;;;;;;5086216;28;42201;-65
2023/07/22 07:56:09;;;;;;;20.10;12.25;;;;;;;;;;5085452;28;42045;-65
2023/07/22 07:58:37;;;;;;;18.02;12.85;;;;;;;;;;5086345;28;39959;-66
2023/07/22 08:01:05;;;;;;;20.27;12.55;;;;;;;;;;5085139;28;42139;-65
2023/07/22 08:03:33;;;;;;;17.83;12.10;;;;;;;;;;5100207;28;42116;-65
2023/07/22 08:06:02;;;;;;;18.20;12.38;;;;;;;;;;5108807;28;41591;-65
2023/07/22 08:08:30;;;;;;;17.83;11.50;;;;;;;;;;5109536;28;42357;-65
2023/07/22 08:10:59;;;;;;;19.48;11.90;;;;;;;;;;5109807;28;41474;-65
2023/07/22 08:13:29;;;;;;;22.17;12.55;;;;;;;;;;5109410;28;41779;-67
2023/07/22 08:15:57;;;;;;;15.75;10.85;;;;;;;;;;5108501;28;42698;-66
2023/07/22 08:18:25;;;;;;;17.67;10.00;;;;;;;;;;5109539;28;41407;-67
2023/07/22 08:20:57;;;;;;;16.40;9.88;;;;;;;;;;5109446;28;41594;-66
2023/07/22 08:23:27;;;;;;;14.00;9.23;;;;;;;;;;5108953;27;41963;-66
2023/07/22 08:25:55;;;;;;;15.88;9.13;;;;;;;;;;5109379;27;40177;-66
2023/07/22 08:28:23;;;;;;;13.63;8.60;;;;;;;;;;5109936;27;41533;-67
2023/07/22 08:30:51;;;;;;;16.02;9.25;;;;;;;;;;5108955;27;43034;-66
2023/07/22 08:33:18;;;;;;;14.48;10.63;;;;;;;;;;5109757;27;41639;-66
2023/07/22 08:36:06;;;;;;;16.70;9.35;;;;;;;;;;5108592;28;43202;-66
2023/07/22 08:38:35;;;;;;;12.23;8.23;;;;;;;;;;5107822;27;40467;-66
2023/07/22 08:41:03;;;;;;;12.85;8.45;;;;;;;;;;5090155;28;42371;-67
2023/07/22 08:43:31;;;;;;;15.65;8.27;;;;;;;;;;5108440;27;42637;-67
2023/07/22 08:46:00;;;;;;;12.07;8.43;;;;;;;;;;5109347;27;40414;-68
2023/07/22 08:48:32;;;;;;;17.65;10.05;;;;;;;;;;5109071;27;41206;-68
2023/07/22 08:51:03;;;;;;;15.77;9.13;;;;;;;;;;5107791;28;42851;-68
2023/07/22 08:53:33;;;;;;;17.40;10.00;;;;;;;;;;5089624;28;40460;-68
2023/07/22 08:56:02;;;;;;;15.65;8.23;;;;;;;;;;5088421;28;41644;-67
2023/07/22 08:58:30;;;;;;;11.93;8.60;;;;;;;;;;5088007;28;41021;-68
2023/07/22 09:00:58;;;;;;;15.50;9.13;;;;;;;;;;5088732;28;41531;-67
2023/07/22 09:03:26;;;;;;;15.10;10.00;;;;;;;;;;5091239;28;42950;-68
2023/07/22 09:05:57;;;;;;;15.30;8.55;;;;;;;;;;5107854;28;40871;-67
2023/07/22 09:08:25;;;;;;;15.00;9.13;;;;;;;;;;5109580;27;42767;-66
2023/07/22 09:10:52;;;;;;;12.40;7.78;;;;;;;;;;5109510;27;41848;-68
2023/07/22 09:13:22;;;;;;;11.70;7.00;;;;;;;;;;5108571;27;40452;-65
2023/07/22 09:15:50;;;;;;;14.93;6.85;;;;;;;;;;5108060;27;43002;-65
2023/07/22 09:18:18;;;;;;;9.73;6.63;;;;;;;;;;5107357;27;40501;-65
2023/07/22 09:20:46;;;;;;;12.18;6.55;;;;;;;;;;5108028;28;40902;-65
2023/07/22 09:23:14;;;;;;;8.73;6.60;;;;;;;;;;5109229;27;42070;-65
2023/07/22 09:25:42;;;;;;;9.13;6.75;;;;;;;;;;5108052;27;40773;-65
2023/07/22 09:28:10;;;;;;;14.63;6.78;;;;;;;;;;5097245;27;42626;-65
2023/07/22 09:30:40;;;;;;;10.05;6.25;;;;;;;;;;5098944;28;43068;-65
2023/07/22 09:33:09;;;;;;;10.90;6.97;;;;;;;;;;5108179;27;41421;-65
2023/07/22 09:35:44;;;;;;;11.52;6.90;;;;;;;;;;5108868;27;41931;-65
2023/07/22 09:38:12;;;;;;;10.43;7.28;;;;;;;;;;5108812;27;40865;-65
2023/07/22 09:40:40;;;;;;;12.10;7.80;;;;;;;;;;5107282;27;42164;-68
2023/07/22 09:43:10;;;;;;;13.05;8.20;;;;;;;;;;5108178;27;41891;-65
2023/07/22 09:45:38;;;;;;;11.90;8.23;;;;;;;;;;5107155;27;40545;-66
2023/07/22 09:48:07;;;;;;;12.63;7.97;;;;;;;;;;5107308;27;41435;-64
2023/07/22 09:50:36;;;;;;;12.50;7.80;;;;;;;;;;5106014;27;42683;-62
2023/07/22 09:53:04;;;;;;;15.23;8.98;;;;;;;;;;5106341;27;40558;-62
2023/07/22 09:55:32;;;;;;;13.20;9.07;;;;;;;;;;5106015;27;42301;-61
2023/07/22 09:58:01;;;;;;;15.77;8.73;;;;;;;;;;5107810;27;41712;-61
2023/07/22 10:00:29;;;;;;;15.30;8.90;;;;;;;;;;5106304;27;41969;-61
2023/07/22 10:02:58;;;;;;;11.43;8.35;;;;;;;;;;5106759;27;41891;-61
2023/07/22 10:05:28;;;;;;;13.50;8.80;;;;;;;;;;5107081;27;41292;-60
2023/07/22 10:07:57;;;;;;;18.48;8.45;;;;;;;;;;5106111;27;41294;-62
2023/07/22 10:10:26;;;;;;;14.60;8.73;;;;;;;;;;5106776;27;42688;-62
2023/07/22 10:12:56;;;;;;;13.10;9.23;;;;;;;;;;5106374;27;41519;-63
2023/07/22 10:15:25;;;;;;;14.48;8.18;;;;;;;;;;5106076;28;42442;-62
2023/07/22 10:17:53;;;;;;;16.17;8.73;;;;;;;;;;5107376;27;41692;-62
2023/07/22 10:20:21;;;;;;;13.85;7.55;;;;;;;;;;5086365;27;40425;-62
2023/07/22 10:22:51;;;;;;;15.10;7.03;;;;;;;;;;5099806;27;41926;-62
2023/07/22 10:25:19;;;;;;;16.60;7.32;;;;;;;;;;5102437;27;40389;-62
2023/07/22 10:27:47;;;;;;;10.88;6.88;;;;;;;;;;5097177;27;41615;-62
2023/07/22 10:30:15;;;;;;;9.38;6.25;;;;;;;;;;5102325;27;42729;-62
2023/07/22 10:32:43;;;;;;;11.65;6.45;;;;;;;;;;5101938;27;40501;-62
2023/07/22 10:35:17;;;;;;;9.65;6.45;;;;;;;;;;5096813;28;42310;-62
2023/07/22 10:37:46;;;;;;;9.73;5.15;;;;;;;;;;5099220;27;41803;-62
2023/07/22 10:40:26;;;;;;;12.93;6.07;;;;;;;;;;5103405;27;39278;-62
2023/07/22 10:42:54;;;;;;;7.95;5.55;;;;;;;;;;5100615;28;41265;-61
2023/07/22 10:45:26;;;;;;;10.40;6.20;;;;;;;;;;5094847;27;40363;-61
2023/07/22 10:48:01;;;;;;;9.65;6.25;;;;;;;;;;5101894;27;42602;-61
2023/07/22 10:50:39;;;;;;;9.13;5.80;;;;;;;;;;5100396;28;42636;-61
2023/07/22 10:53:11;;;;;;;12.30;5.78;;;;;;;;;;5103037;27;40202;-61
2023/07/22 10:56:03;;;;;;;9.32;5.35;;;;;;;;;;5101681;27;41654;-61
2023/07/22 10:58:33;;;;;;;5.55;4.47;;;;;;;;;;5097966;28;42776;-62
2023/07/22 11:01:22;;;;;;;8.27;4.95;;;;;;;;;;5100041;27;40975;-61
2023/07/22 11:04:10;;;;;;;8.23;4.32;;;;;;;;;;5100121;27;42729;-61
2023/07/22 11:06:38;;;;;;;10.50;4.97;;;;;;;;;;5100009;28;41751;-62
2023/07/22 11:09:06;;;;;;;8.73;5.05;;;;;;;;;;5100906;27;41845;-61
2023/07/22 11:11:38;;;;;;;8.73;4.57;;;;;;;;;;5100243;27;42424;-60
2023/07/22 11:14:16;;;;;;;6.45;4.50;;;;;;;;;;5099273;28;42019;-61
2023/07/22 11:16:45;;;;;;;6.47;4.50;;;;;;;;;;5102220;27;41138;-62
2023/07/22 11:19:13;;;;;;;9.70;4.43;;;;;;;;;;5100864;27;42487;-60
2023/07/22 11:21:41;;;;;;;13.77;4.35;;;;;;;;;;5101733;28;40755;-60
2023/07/22 11:24:09;;;;;;;9.10;4.30;;;;;;;;;;5098271;27;40855;-61
2023/07/22 11:26:37;;;;;;;7.40;4.70;;;;;;;;;;5101440;27;42465;-63
2023/07/22 11:29:05;;;;;;;7.80;4.05;;;;;;;;;;5101278;27;40442;-62
2023/07/22 11:31:36;;;;;;;8.13;3.80;;;;;;;;;;5102115;27;42102;-60
2023/07/22 11:34:04;;;;;;;8.70;4.07;;;;;;;;;;5100116;27;39005;-61
2023/07/22 11:36:32;;;;;;;6.72;4.03;;;;;;;;;;5101057;27;41729;-61
2023/07/22 11:39:03;;;;;;;4.47;3.40;;;;;;;;;;5100978;28;41932;-60
2023/07/22 11:41:31;;;;;;;6.10;3.88;;;;;;;;;;5104609;27;41639;-60
2023/07/22 11:44:00;;;;;;;7.45;3.70;;;;;;;;;;5106479;27;20231;-61
2023/07/22 11:46:28;;;;;;;7.55;3.50;;;;;;;;;;5104322;28;42892;-61
2023/07/22 11:48:58;;;;;;;4.68;3.40;;;;;;;;;;5105316;27;41404;-60
2023/07/22 11:51:28;;;;;;;5.35;3.38;;;;;;;;;;5104908;28;43281;-60
2023/07/22 11:53:56;;;;;;;6.03;3.55;;;;;;;;;;5104699;27;41260;-60
2023/07/22 11:56:27;;;;;;;7.70;3.45;;;;;;;;;;5105905;28;41479;-61
2023/07/22 11:58:55;;;;;;;4.95;2.90;;;;;;;;;;5104083;27;42333;-60
2023/07/22 12:01:23;;;;;;;5.65;3.75;;;;;;;;;;5097911;27;40987;-62
2023/07/22 12:03:56;;;;;;;8.43;3.10;;;;;;;;;;5101025;27;41802;-62
2023/07/22 12:06:27;;;;;;;7.68;3.10;;;;;;;;;;5097849;28;42064;-62
2023/07/22 12:08:55;;;;;;;5.50;3.30;;;;;;;;;;5101915;28;40526;-62
2023/07/22 12:11:23;;;;;;;6.68;3.45;;;;;;;;;;5101758;27;41716;-62
2023/07/22 12:14:04;;;;;;;6.03;3.55;;;;;;;;;;5103292;28;40368;-62
2023/07/22 12:16:32;;;;;;;4.60;3.10;;;;;;;;;;5106368;28;41752;-62
2023/07/22 12:19:00;;;;;;;6.20;3.50;;;;;;;;;;5100112;28;41965;-61
2023/07/22 12:21:30;;;;;;;7.22;3.80;;;;;;;;;;5098019;27;39226;-62
2023/07/22 12:23:58;;;;;;;9.48;3.83;;;;;;;;;;5104478;28;42272;-62
2023/07/22 12:26:26;;;;;;;8.73;3.75;;;;;;;;;;5103470;27;43176;-62
2023/07/22 12:28:54;;;;;;;9.07;3.85;;;;;;;;;;5102936;28;42330;-62
2023/07/22 12:31:22;;;;;;;6.10;3.63;;;;;;;;;;5104740;27;42279;-62
2023/07/22 12:33:50;;;;;;;12.50;3.60;;;;;;;;;;5104004;27;41805;-62
2023/07/22 12:36:18;;;;;;;9.80;3.17;;;;;;;;;;5105035;27;42662;-61
2023/07/22 12:38:47;;;;;;;7.82;3.83;;;;;;;;;;5105017;28;42270;-61
2023/07/22 12:41:15;;;;;;;7.15;3.72;;;;;;;;;;5105721;27;40011;-61
2023/07/22 12:43:44;;;;;;;6.72;3.25;;;;;;;;;;5103144;27;42556;-62
2023/07/22 12:46:13;;;;;;;5.78;3.35;;;;;;;;;;5099450;28;42832;-62
2023/07/22 12:48:41;;;;;;;4.40;3.30;;;;;;;;;;5104130;27;40643;-62
2023/07/22 12:51:09;;;;;;;6.43;3.35;;;;;;;;;;5104622;27;41852;-61
2023/07/22 12:53:37;;;;;;;4.47;3.53;;;;;;;;;;5104742;27;41990;-62
2023/07/22 12:56:07;;;;;;;7.60;3.63;;;;;;;;;;5104783;28;40048;-69
2023/07/22 12:58:35;;;;;;;5.15;3.60;;;;;;;;;;5104072;27;41978;-65
2023/07/22 13:01:03;;;;;;;6.32;3.33;;;;;;;;;;5104056;27;40187;-65
2023/07/22 13:03:31;;;;;;;7.90;3.15;;;;;;;;;;5103239;27;42090;-65
2023/07/22 13:05:59;;;;;;;7.68;3.22;;;;;;;;;;5100141;28;42803;-65
2023/07/22 13:08:27;;;;;;;6.22;3.58;;;;;;;;;;5105664;28;41985;-65
2023/07/22 13:10:55;;;;;;;8.40;2.92;;;;;;;;;;5101788;27;42662;-65
2023/07/22 13:13:24;;;;;;;5.45;3.15;;;;;;;;;;5104811;27;42786;-65
2023/07/22 13:15:52;;;;;;;5.50;2.75;;;;;;;;;;5102575;27;39728;-66
2023/07/22 13:18:21;;;;;;;6.70;2.92;;;;;;;;;;5104796;27;42040;-66
2023/07/22 13:20:49;;;;;;;4.43;3.15;;;;;;;;;;5104912;27;41426;-66
2023/07/22 13:23:17;;;;;;;5.30;3.38;;;;;;;;;;5103739;28;41544;-66
2023/07/22 13:25:45;;;;;;;6.15;3.50;;;;;;;;;;5104435;28;41857;-66
2023/07/22 13:28:13;;;;;;;6.95;3.72;;;;;;;;;;5103828;27;40959;-65
2023/07/22 13:30:42;;;;;;;7.78;3.63;;;;;;;;;;5097444;28;43541;-67
2023/07/22 13:33:10;;;;;;;6.60;3.70;;;;;;;;;;5101522;27;42689;-66
2023/07/22 13:35:38;;;;;;;5.22;2.75;;;;;;;;;;5104773;27;40481;-66
2023/07/22 13:38:06;;;;;;;8.93;3.42;;;;;;;;;;5100318;27;41659;-66
2023/07/22 13:40:35;;;;;;;5.53;3.22;;;;;;;;;;5103322;27;40350;-66
2023/07/22 13:43:03;;;;;;;7.57;3.88;;;;;;;;;;5103079;27;41620;-66
2023/07/22 13:45:31;;;;;;;5.80;3.35;;;;;;;;;;5102626;27;42049;-66
2023/07/22 13:48:00;;;;;;;6.30;3.30;;;;;;;;;;5103916;28;41039;-66
2023/07/22 13:50:28;;;;;;;8.52;3.53;;;;;;;;;;5103959;27;41528;-67
2023/07/22 13:52:56;;;;;;;5.88;3.80;;;;;;;;;;5102639;27;42696;-66
2023/07/22 13:55:24;;;;;;;5.70;3.50;;;;;;;;;;5101428;28;40493;-66
2023/07/22 13:57:52;;;;;;;6.72;3.55;;;;;;;;;;5100474;27;41489;-66
2023/07/22 14:00:20;;;;;;;6.03;3.85;;;;;;;;;;5104283;28;42432;-66
2023/07/22 14:02:48;;;;;;;5.88;3.40;;;;;;;;;;5100971;27;41326;-67
2023/07/22 14:05:18;;;;;;;5.40;3.22;;;;;;;;;;5104707;28;42295;-67
2023/07/22 14:07:46;;;;;;;4.72;3.17;;;;;;;;;;5101302;27;41231;-62
2023/07/22 14:10:14;;;;;;;5.55;3.47;;;;;;;;;;5096538;27;42190;-63
2023/07/22 14:12:42;;;;;;;7.43;3.08;;;;;;;;;;5100231;27;42390;-64
2023/07/22 14:15:11;;;;;;;6.93;3.30;;;;;;;;;;5100894;28;40633;-63
2023/07/22 14:17:39;;;;;;;4.15;2.67;;;;;;;;;;5095697;27;41558;-63
2023/07/22 14:20:08;;;;;;;7.93;3.30;;;;;;;;;;5103513;27;41903;-63
2023/07/22 14:22:37;;;;;;;3.55;2.60;;;;;;;;;;5104636;28;40875;-63
2023/07/22 14:25:06;;;;;;;4.90;3.05;;;;;;;;;;5099475;28;42948;-64
2023/07/22 14:27:35;;;;;;;4.78;2.83;;;;;;;;;;5100508;28;40533;-63
2023/07/22 14:30:03;;;;;;;5.93;2.65;;;;;;;;;;5101064;27;42590;-63
2023/07/22 14:32:32;;;;;;;3.83;2.80;;;;;;;;;;5103756;27;43646;-63
2023/07/22 14:35:00;;;;;;;3.33;2.63;;;;;;;;;;5101256;27;40110;-63
2023/07/22 14:37:28;;;;;;;5.07;2.75;;;;;;;;;;5104840;27;42243;-63
2023/07/22 14:39:57;;;;;;;3.65;2.50;;;;;;;;;;5101797;27;41490;-63
2023/07/22 14:42:26;;;;;;;10.05;3.72;;;;;;;;;;5102674;27;40058;-63
2023/07/22 14:44:54;;;;;;;6.13;2.95;;;;;;;;;;5103104;27;41726;-63